createdAt,value
2023-04-12T00:01:18.298Z,11.30
2023-04-12T00:04:05.343Z,11.20
2023-04-12T00:06:54.479Z,11.20
2023-04-12T00:09:41.289Z,11.10
2023-04-12T00:12:28.208Z,11.20
2023-04-12T00:15:15.301Z,11.10
2023-04-12T00:18:01.785Z,11.00
2023-04-12T00:20:48.717Z,11.00
2023-04-12T00:23:38.074Z,11.00
2023-04-12T00:26:25.056Z,10.80
2023-04-12T00:29:11.634Z,10.80
2023-04-12T00:31:59.749Z,10.70
2023-04-12T00:34:46.589Z,10.50
2023-04-12T00:37:33.008Z,10.50
2023-04-12T00:40:22.388Z,10.50
2023-04-12T00:43:10.256Z,10.50
2023-04-12T00:45:58.819Z,10.50
2023-04-12T00:48:48.142Z,10.40
2023-04-12T00:51:34.878Z,10.50
2023-04-12T00:54:22.213Z,10.50
2023-04-12T00:57:10.593Z,10.40
2023-04-12T00:59:57.600Z,10.20
2023-04-12T01:02:47.133Z,10.00
2023-04-12T01:05:51.601Z,9.80
2023-04-12T01:08:49.445Z,9.60
2023-04-12T01:11:41.536Z,9.60
2023-04-12T01:14:36.588Z,9.50
2023-04-12T01:17:27.953Z,9.30
2023-04-12T01:20:18.807Z,9.20
2023-04-12T01:23:18.938Z,9.20
2023-04-12T01:26:17.783Z,9.40
2023-04-12T01:29:11.177Z,9.30
2023-04-12T01:32:00.771Z,9.30
2023-04-12T01:34:48.117Z,9.20
2023-04-12T01:37:35.192Z,9.20
2023-04-12T01:40:23.129Z,9.10
2023-04-12T01:43:11.673Z,9.10
2023-04-12T01:46:01.061Z,9.00
2023-04-12T01:48:50.819Z,8.90
2023-04-12T01:51:49.157Z,9.00
2023-04-12T01:54:40.314Z,9.00
2023-04-12T01:57:28.001Z,9.00
2023-04-12T02:00:16.714Z,9.10
2023-04-12T02:03:05.996Z,9.20
2023-04-12T02:05:54.227Z,9.30
2023-04-12T02:08:40.755Z,9.30
2023-04-12T02:11:28.532Z,9.30
2023-04-12T02:14:15.489Z,9.20
2023-04-12T02:17:05.491Z,9.20
2023-04-12T02:19:54.017Z,9.20
2023-04-12T02:22:41.123Z,9.10
2023-04-12T02:25:27.461Z,9.00
2023-04-12T02:28:14.253Z,9.10
2023-04-12T02:31:01.911Z,9.00
2023-04-12T02:33:51.404Z,8.90
2023-04-12T02:36:40.254Z,9.00
2023-04-12T02:39:29.138Z,9.10
2023-04-12T02:42:16.223Z,9.10
2023-04-12T02:45:04.774Z,9.10
2023-04-12T02:47:51.706Z,9.00
2023-04-12T02:50:43.052Z,9.00
2023-04-12T02:53:37.314Z,9.00
2023-04-12T02:56:36.984Z,9.00
2023-04-12T02:59:35.946Z,8.90
2023-04-12T03:02:36.263Z,8.80
2023-04-12T03:05:25.928Z,8.80
2023-04-12T03:08:12.579Z,8.80
2023-04-12T03:11:08.311Z,8.70
2023-04-12T03:13:55.784Z,8.60
2023-04-12T03:16:42.227Z,8.60
2023-04-12T03:19:36.762Z,8.50
2023-04-12T03:22:25.306Z,8.50
2023-04-12T03:25:17.985Z,8.50
2023-04-12T03:28:11.880Z,8.50
2023-04-12T03:31:08.931Z,8.50
2023-04-12T03:34:00.250Z,8.50
2023-04-12T03:36:47.754Z,8.50
2023-04-12T03:39:40.590Z,8.50
2023-04-12T03:42:33.581Z,8.40
2023-04-12T03:45:32.646Z,8.50
2023-04-12T03:48:21.742Z,8.50
2023-04-12T03:51:12.011Z,8.50
2023-04-12T03:54:04.342Z,8.40
2023-04-12T03:57:00.156Z,8.40
2023-04-12T03:59:57.671Z,8.40
2023-04-12T04:02:50.383Z,8.30
2023-04-12T04:05:37.338Z,8.30
2023-04-12T04:08:26.088Z,8.30
2023-04-12T04:11:14.080Z,8.30
2023-04-12T04:14:06.173Z,8.30
2023-04-12T04:16:53.132Z,8.40
2023-04-12T04:19:42.604Z,8.30
2023-04-12T04:22:29.586Z,8.40
2023-04-12T04:25:20.042Z,8.40
2023-04-12T04:28:12.262Z,8.40
2023-04-12T04:31:03.959Z,8.40
2023-04-12T04:33:51.148Z,8.40
2023-04-12T04:36:44.680Z,8.40
2023-04-12T04:39:35.063Z,8.40
2023-04-12T04:42:22.103Z,8.40
2023-04-12T04:45:21.975Z,8.40
2023-04-12T04:48:09.368Z,8.40
2023-04-12T04:50:55.855Z,8.30
2023-04-12T04:53:44.663Z,8.30
2023-04-12T04:56:33.689Z,8.30
2023-04-12T04:59:21.048Z,8.40
2023-04-12T05:02:07.827Z,8.40
2023-04-12T05:04:56.460Z,8.40
2023-04-12T05:07:45.707Z,8.40
2023-04-12T05:10:34.067Z,8.40
2023-04-12T05:13:22.494Z,8.40
2023-04-12T05:16:11.381Z,8.50
2023-04-12T05:18:59.552Z,8.50
2023-04-12T05:21:46.489Z,8.50
2023-04-12T05:24:33.544Z,8.60
2023-04-12T05:27:22.370Z,8.60
2023-04-12T05:30:11.108Z,8.60
2023-04-12T05:32:58.806Z,8.70
2023-04-12T05:35:46.123Z,8.80
2023-04-12T05:38:33.132Z,8.80
2023-04-12T05:41:24.748Z,8.90
2023-04-12T05:44:13.050Z,9.00
2023-04-12T05:46:59.482Z,8.90
2023-04-12T05:49:46.185Z,8.80
2023-04-12T05:52:32.576Z,8.80
2023-04-12T05:55:19.572Z,8.80
2023-04-12T05:58:06.567Z,8.80
2023-04-12T06:00:55.530Z,8.80
2023-04-12T06:03:43.402Z,8.80
2023-04-12T06:06:33.172Z,8.90
2023-04-12T06:09:20.804Z,8.90
2023-04-12T06:12:07.525Z,8.80
2023-04-12T06:14:56.587Z,8.80
2023-04-12T06:17:45.218Z,8.80
2023-04-12T06:20:31.998Z,8.80
2023-04-12T06:23:19.550Z,8.90
2023-04-12T06:26:07.501Z,8.90
2023-04-12T06:28:54.238Z,8.80
2023-04-12T06:31:41.252Z,8.90
2023-04-12T06:34:30.001Z,8.90
2023-04-12T06:37:21.940Z,9.00
2023-04-12T06:40:10.005Z,9.00
2023-04-12T06:42:56.456Z,9.00
2023-04-12T06:45:42.938Z,9.00
2023-04-12T06:48:29.468Z,9.10
2023-04-12T06:51:17.603Z,9.10
2023-04-12T06:54:04.448Z,9.10
2023-04-12T06:56:51.074Z,9.10
2023-04-12T06:59:37.987Z,9.20
2023-04-12T07:02:25.018Z,9.20
2023-04-12T07:05:12.082Z,9.30
2023-04-12T07:08:00.216Z,9.30
2023-04-12T07:10:46.734Z,9.30
2023-04-12T07:13:33.205Z,9.40
2023-04-12T07:16:19.803Z,9.40
2023-04-12T07:19:06.497Z,9.40
2023-04-12T07:21:52.947Z,9.50
2023-04-12T07:24:40.751Z,9.50
2023-04-12T07:27:27.380Z,9.50
2023-04-12T07:30:14.586Z,9.50
2023-04-12T07:33:18.513Z,9.50
2023-04-12T07:36:07.272Z,9.50
2023-04-12T07:38:55.656Z,9.60
2023-04-12T07:41:46.429Z,9.60
2023-04-12T07:44:35.557Z,9.70
2023-04-12T07:47:23.860Z,9.70
2023-04-12T07:50:13.183Z,9.70
2023-04-12T07:53:19.662Z,9.80
2023-04-12T07:56:07.025Z,9.90
2023-04-12T07:58:55.350Z,10.00
2023-04-12T08:01:42.040Z,10.20
2023-04-12T08:04:29.123Z,10.40
2023-04-12T08:07:16.017Z,10.50
2023-04-12T08:10:02.638Z,10.50
2023-04-12T08:12:49.118Z,10.60
2023-04-12T08:15:37.117Z,10.70
2023-04-12T08:18:23.868Z,10.70
2023-04-12T08:21:10.802Z,10.80
2023-04-12T08:23:57.936Z,10.70
2023-04-12T08:26:44.805Z,10.60
2023-04-12T08:29:31.388Z,10.50
2023-04-12T08:32:19.253Z,10.50
2023-04-12T08:35:06.987Z,10.70
2023-04-12T08:37:53.441Z,10.90
2023-04-12T08:40:43.886Z,11.10
2023-04-12T08:43:30.996Z,11.20
2023-04-12T08:46:18.356Z,11.40
2023-04-12T08:49:06.324Z,11.60
2023-04-12T08:51:54.813Z,11.70
2023-04-12T08:54:41.762Z,11.70
2023-04-12T08:57:29.530Z,11.80
2023-04-12T09:00:20.596Z,11.90
2023-04-12T09:03:07.461Z,11.90
2023-04-12T09:05:55.632Z,11.90
2023-04-12T09:08:53.502Z,11.90
2023-04-12T09:11:40.291Z,11.90
2023-04-12T09:14:27.389Z,12.00
2023-04-12T09:17:24.657Z,11.90
2023-04-12T09:20:25.735Z,11.90
2023-04-12T09:23:20.215Z,12.00
2023-04-12T09:26:08.120Z,12.10
2023-04-12T09:28:54.537Z,12.10
2023-04-12T09:31:55.629Z,12.10
2023-04-12T09:34:56.577Z,12.20
2023-04-12T09:37:43.355Z,12.30
2023-04-12T09:40:36.172Z,12.50
2023-04-12T09:43:37.635Z,12.60
2023-04-12T09:46:24.259Z,12.70
2023-04-12T09:49:11.209Z,12.80
2023-04-12T09:51:59.532Z,12.80
2023-04-12T09:54:48.758Z,12.80
2023-04-12T09:57:39.022Z,12.70
2023-04-12T10:00:27.047Z,12.80
2023-04-12T10:03:13.991Z,12.90
2023-04-12T10:06:01.089Z,12.80
2023-04-12T10:08:48.015Z,12.80
2023-04-12T10:11:35.093Z,12.90
2023-04-12T10:14:24.842Z,13.00
2023-04-12T10:17:13.077Z,13.10
2023-04-12T10:20:00.590Z,13.10
2023-04-12T10:22:48.368Z,13.30
2023-04-12T10:25:35.216Z,13.20
2023-04-12T10:28:23.048Z,13.30
2023-04-12T10:31:30.095Z,13.20
2023-04-12T10:34:17.188Z,13.10
2023-04-12T10:37:04.308Z,13.20
2023-04-12T10:39:54.868Z,13.30
2023-04-12T10:42:41.612Z,13.30
2023-04-12T10:45:38.721Z,13.40
2023-04-12T10:48:34.453Z,13.60
2023-04-12T10:51:25.394Z,13.70
2023-04-12T10:54:36.036Z,13.70
2023-04-12T10:57:47.277Z,13.60
2023-04-12T11:01:13.768Z,13.60
2023-04-12T11:04:14.249Z,13.60
2023-04-12T11:07:10.152Z,13.80
2023-04-12T11:10:15.181Z,13.80
2023-04-12T11:13:08.829Z,13.80
2023-04-12T11:15:56.398Z,13.80
2023-04-12T11:18:47.361Z,13.90
2023-04-12T11:21:35.681Z,14.10
2023-04-12T11:24:22.499Z,14.10
2023-04-12T11:27:09.858Z,14.10
2023-04-12T11:29:58.081Z,14.30
2023-04-12T11:32:47.258Z,14.40
2023-04-12T11:35:33.983Z,14.30
2023-04-12T11:38:22.517Z,14.20
2023-04-12T11:41:10.205Z,14.40
2023-04-12T11:43:56.960Z,14.50
2023-04-12T11:46:43.569Z,14.50
2023-04-12T11:49:30.663Z,14.40
2023-04-12T11:52:18.994Z,14.20
2023-04-12T11:55:08.743Z,14.20
2023-04-12T11:57:55.909Z,14.20
2023-04-12T12:00:43.203Z,14.20
2023-04-12T12:03:30.418Z,14.20
2023-04-12T12:06:18.537Z,14.30
2023-04-12T12:09:05.605Z,14.30
2023-04-12T12:11:54.484Z,14.20
2023-04-12T12:14:41.736Z,14.30
2023-04-12T12:17:28.782Z,14.40
2023-04-12T12:20:21.784Z,14.40
2023-04-12T12:23:08.532Z,14.40
2023-04-12T12:26:03.078Z,14.40
2023-04-12T12:29:00.336Z,14.60
2023-04-12T12:31:49.250Z,14.70
2023-04-12T12:34:36.198Z,14.90
2023-04-12T12:37:25.289Z,14.90
2023-04-12T12:40:14.488Z,15.00
2023-04-12T12:43:01.517Z,15.00
2023-04-12T12:45:49.191Z,15.00
2023-04-12T12:48:40.493Z,15.20
2023-04-12T12:51:28.288Z,15.40
2023-04-12T12:54:25.040Z,15.50
2023-04-12T12:57:23.238Z,15.50
2023-04-12T13:00:11.071Z,15.50
2023-04-12T13:02:59.441Z,15.50
2023-04-12T13:05:46.408Z,15.70
2023-04-12T13:08:35.193Z,15.80
2023-04-12T13:11:22.097Z,15.90
2023-04-12T13:14:08.809Z,15.80
2023-04-12T13:16:55.373Z,15.70
2023-04-12T13:19:43.534Z,15.70
2023-04-12T13:22:30.311Z,15.60
2023-04-12T13:25:16.999Z,15.80
2023-04-12T13:28:03.492Z,16.00
2023-04-12T13:30:49.732Z,16.10
2023-04-12T13:33:36.213Z,16.20
2023-04-12T13:36:24.753Z,16.30
2023-04-12T13:39:11.240Z,16.50
2023-04-12T13:41:58.107Z,16.60
2023-04-12T13:44:44.841Z,16.80
2023-04-12T13:47:31.721Z,17.00
2023-04-12T13:50:18.530Z,17.00
2023-04-12T13:53:06.959Z,16.90
2023-04-12T13:55:53.368Z,16.90
2023-04-12T13:58:40.384Z,16.80
2023-04-12T14:01:27.154Z,16.70
2023-04-12T14:04:14.311Z,16.60
2023-04-12T14:07:01.128Z,16.50
2023-04-12T14:09:49.399Z,16.30
2023-04-12T14:12:36.160Z,16.20
2023-04-12T14:15:23.469Z,16.10
2023-04-12T14:18:10.317Z,16.00
2023-04-12T14:20:59.198Z,16.00
2023-04-12T14:23:45.957Z,15.90
2023-04-12T14:26:33.805Z,15.70
2023-04-12T14:29:20.551Z,15.50
2023-04-12T14:32:07.687Z,15.30
2023-04-12T14:34:54.530Z,15.20
2023-04-12T14:37:41.254Z,14.90
2023-04-12T14:40:28.266Z,14.50
2023-04-12T14:43:17.038Z,13.80
2023-04-12T14:46:03.928Z,13.40
2023-04-12T14:48:50.981Z,13.10
2023-04-12T14:51:37.512Z,12.60
2023-04-12T14:54:24.050Z,12.40
2023-04-12T14:57:11.134Z,12.30
2023-04-12T14:59:59.475Z,12.20
2023-04-12T15:02:47.972Z,12.30
2023-04-12T15:05:35.411Z,12.20
2023-04-12T15:08:23.180Z,12.30
2023-04-12T15:11:11.169Z,12.40
2023-04-12T15:13:58.218Z,12.50
2023-04-12T15:16:49.257Z,12.60
2023-04-12T15:19:36.599Z,12.40
2023-04-12T15:22:26.439Z,12.40
2023-04-12T15:25:13.362Z,12.50
2023-04-12T15:27:59.960Z,12.50
2023-04-12T15:30:46.334Z,12.50
2023-04-12T15:33:35.226Z,12.50
2023-04-12T15:36:22.060Z,12.50
2023-04-12T15:39:08.960Z,12.60
2023-04-12T15:41:56.097Z,12.60
2023-04-12T15:44:42.645Z,12.60
2023-04-12T15:47:29.605Z,12.60
2023-04-12T15:50:19.030Z,12.60
2023-04-12T15:53:05.670Z,12.60
2023-04-12T15:55:54.066Z,12.60
2023-04-12T15:58:40.555Z,12.50
2023-04-12T16:01:27.849Z,12.70
2023-04-12T16:04:16.221Z,12.90
2023-04-12T16:07:04.563Z,12.90
2023-04-12T16:09:52.188Z,12.90
2023-04-12T16:12:38.762Z,12.90
2023-04-12T16:15:25.454Z,12.80
2023-04-12T16:18:12.723Z,12.70
2023-04-12T16:20:59.771Z,12.80
2023-04-12T16:23:49.111Z,12.90
2023-04-12T16:26:36.009Z,13.00
2023-04-12T16:29:23.071Z,13.00
2023-04-12T16:32:09.763Z,13.10
2023-04-12T16:34:56.677Z,13.00
2023-04-12T16:37:43.665Z,13.10
2023-04-12T16:40:31.810Z,13.00
2023-04-12T16:43:18.695Z,13.00
2023-04-12T16:46:05.951Z,12.90
2023-04-12T16:48:52.825Z,12.90
2023-04-12T16:51:39.347Z,12.90
2023-04-12T16:54:26.269Z,12.90
2023-04-12T16:57:14.524Z,12.90
2023-04-12T17:00:01.060Z,12.90
2023-04-12T17:02:49.683Z,12.90
2023-04-12T17:05:36.772Z,12.90
2023-04-12T17:08:23.282Z,12.80
2023-04-12T17:11:09.776Z,12.80
2023-04-12T17:13:58.242Z,12.70
2023-04-12T17:16:44.738Z,12.60
2023-04-12T17:19:32.068Z,12.50
2023-04-12T17:22:18.686Z,12.40
2023-04-12T17:25:06.806Z,12.40
2023-04-12T17:27:53.285Z,12.30
2023-04-12T17:30:41.087Z,12.30
2023-04-12T17:33:28.225Z,12.50
2023-04-12T17:36:14.947Z,12.50
2023-04-12T17:39:04.497Z,12.60
2023-04-12T17:41:50.850Z,12.60
2023-04-12T17:44:37.967Z,12.50
2023-04-12T17:47:25.864Z,12.50
2023-04-12T17:50:12.945Z,12.40
2023-04-12T17:53:00.055Z,12.10
2023-04-12T17:55:48.405Z,12.10
2023-04-12T17:58:37.117Z,12.20
2023-04-12T18:01:23.935Z,12.20
2023-04-12T18:04:12.415Z,12.00
2023-04-12T18:06:59.443Z,11.90
2023-04-12T18:09:46.094Z,11.80
2023-04-12T18:12:32.855Z,11.80
2023-04-12T18:15:19.540Z,11.70
2023-04-12T18:18:07.861Z,11.70
2023-04-12T18:20:56.118Z,11.70
2023-04-12T18:23:42.831Z,11.60
2023-04-12T18:26:30.596Z,11.60
2023-04-12T18:29:17.576Z,11.60
2023-04-12T18:32:04.402Z,11.50
2023-04-12T18:34:51.383Z,11.50
2023-04-12T18:37:40.816Z,11.40
2023-04-12T18:40:28.538Z,11.50
2023-04-12T18:43:15.609Z,11.50
2023-04-12T18:46:02.534Z,11.40
2023-04-12T18:48:52.105Z,11.40
2023-04-12T18:51:38.516Z,11.30
2023-04-12T18:54:27.560Z,11.20
2023-04-12T18:57:15.337Z,11.10
2023-04-12T19:00:05.435Z,11.10
2023-04-12T19:02:52.313Z,11.10
2023-04-12T19:05:39.847Z,11.10
2023-04-12T19:08:26.606Z,11.10
2023-04-12T19:11:15.443Z,11.10
2023-04-12T19:14:02.404Z,11.00
2023-04-12T19:16:49.153Z,11.10
2023-04-12T19:19:35.828Z,11.20
2023-04-12T19:22:22.565Z,11.20
2023-04-12T19:25:09.856Z,11.30
2023-04-12T19:27:58.994Z,11.50
2023-04-12T19:30:45.744Z,11.50
2023-04-12T19:33:32.470Z,11.50
2023-04-12T19:36:19.181Z,11.60
2023-04-12T19:39:05.853Z,11.60
2023-04-12T19:41:53.225Z,11.60
2023-04-12T19:44:41.373Z,11.60
2023-04-12T19:47:29.001Z,11.60
2023-04-12T19:50:17.110Z,11.50
2023-04-12T19:53:04.846Z,11.20
2023-04-12T19:55:52.403Z,10.70
2023-04-12T19:58:40.870Z,10.40
2023-04-12T20:01:28.743Z,10.30
2023-04-12T20:04:16.116Z,10.10
2023-04-12T20:07:02.881Z,10.10
2023-04-12T20:09:49.918Z,10.10
2023-04-12T20:12:37.977Z,10.20
2023-04-12T20:15:24.447Z,10.30
2023-04-12T20:18:13.520Z,10.30
2023-04-12T20:21:00.113Z,10.30
2023-04-12T20:23:47.080Z,10.40
2023-04-12T20:26:34.172Z,10.30
2023-04-12T20:29:21.036Z,10.40
2023-04-12T20:32:07.965Z,10.50
2023-04-12T20:34:56.734Z,10.50
2023-04-12T20:37:43.497Z,10.50
2023-04-12T20:40:30.055Z,10.50
2023-04-12T20:43:16.933Z,10.40
2023-04-12T20:46:05.140Z,10.40
2023-04-12T20:48:53.232Z,10.40
2023-04-12T20:51:41.222Z,10.40
2023-04-12T20:54:29.974Z,10.40
2023-04-12T20:57:19.629Z,10.30
2023-04-12T21:00:17.158Z,10.30
2023-04-12T21:03:04.621Z,10.30
2023-04-12T21:05:52.686Z,10.30
2023-04-12T21:08:42.545Z,10.30
2023-04-12T21:11:29.402Z,10.30
2023-04-12T21:14:15.764Z,10.30
2023-04-12T21:17:04.968Z,10.30
2023-04-12T21:19:51.964Z,10.30
2023-04-12T21:22:38.728Z,10.30
2023-04-12T21:25:27.146Z,10.30
2023-04-12T21:28:14.930Z,10.30
2023-04-12T21:31:02.081Z,10.40
2023-04-12T21:33:50.060Z,10.40
2023-04-12T21:36:36.704Z,10.40
2023-04-12T21:39:23.599Z,10.40
2023-04-12T21:42:11.334Z,10.40
2023-04-12T21:44:57.900Z,10.30
2023-04-12T21:47:44.581Z,10.20
2023-04-12T21:50:31.806Z,10.10
2023-04-12T21:53:18.257Z,10.10
2023-04-12T21:56:05.326Z,10.10
2023-04-12T21:58:53.274Z,10.00
2023-04-12T22:01:39.626Z,10.00
2023-04-12T22:04:27.103Z,10.00
2023-04-12T22:07:17.512Z,10.10
2023-04-12T22:10:05.074Z,10.10
2023-04-12T22:12:51.429Z,10.10
2023-04-12T22:15:40.576Z,10.10
2023-04-12T22:18:27.311Z,10.10
2023-04-12T22:21:13.797Z,10.00
2023-04-12T22:24:00.780Z,10.00
2023-04-12T22:26:47.991Z,10.10
2023-04-12T22:29:35.179Z,10.00
2023-04-12T22:32:23.224Z,10.00
2023-04-12T22:35:10.781Z,10.00
2023-04-12T22:37:57.236Z,10.10
2023-04-12T22:40:43.578Z,10.10
2023-04-12T22:43:34.247Z,10.10
2023-04-12T22:46:21.091Z,10.20
2023-04-12T22:49:09.262Z,10.20
2023-04-12T22:51:55.916Z,10.10
2023-04-12T22:54:43.761Z,10.10
2023-04-12T22:57:30.350Z,10.10
2023-04-12T23:00:18.045Z,9.90
2023-04-12T23:03:10.566Z,9.90
2023-04-12T23:05:59.386Z,9.90
2023-04-12T23:08:45.861Z,10.00
2023-04-12T23:11:33.854Z,10.00
2023-04-12T23:14:20.354Z,10.00
2023-04-12T23:17:07.499Z,10.00
2023-04-12T23:19:53.994Z,10.00
2023-04-12T23:22:57.453Z,9.90
2023-04-12T23:25:45.394Z,9.90
2023-04-12T23:28:32.740Z,9.90
2023-04-12T23:31:19.323Z,10.00
2023-04-12T23:34:06.452Z,9.90
2023-04-12T23:36:53.252Z,9.90
2023-04-12T23:39:41.544Z,9.80
2023-04-12T23:42:28.628Z,9.80
2023-04-12T23:45:15.338Z,9.80
2023-04-12T23:48:01.781Z,9.80
2023-04-12T23:50:49.302Z,9.70
2023-04-12T23:53:36.124Z,9.60
2023-04-12T23:56:23.927Z,9.60
2023-04-12T23:59:10.855Z,9.50
